Time;durP1;ratioP1;P1;durP2;ratioP2;P2;SDS_P1;SDS_P2;PMS_P1;PMS_P2;Temp;Humidity;BMP_temperature;BMP_pressure;BME280_temperature;BME280_humidity;BME280_pressure;Samples;Min_cycle;Max_cycle;Signal;HPM_P1;HPM_P2
2023/08/27 00:01:17;;;;;;;14.83;10.45;;;;;;;21.50;59.18;100255.95;1720326;82;21360;-56
2023/08/27 00:04:22;;;;;;;16.70;10.53;;;;;;;21.43;59.28;100252.46;1720226;83;21377;-56
2023/08/27 00:07:28;;;;;;;15.58;10.53;;;;;;;21.37;59.42;100264.07;1720224;82;21934;-57
2023/08/27 00:10:35;;;;;;;15.93;10.78;;;;;;;21.31;59.65;100255.29;1719965;83;21389;-56
2023/08/27 00:13:42;;;;;;;17.73;11.48;;;;;;;21.29;59.84;100266.39;1684236;84;21389;-55
2023/08/27 00:16:48;;;;;;;16.15;11.00;;;;;;;21.25;60.02;100266.03;1655125;86;21251;-56
2023/08/27 00:19:53;;;;;;;14.98;10.20;;;;;;;21.20;60.14;100263.14;1694912;84;21227;-56
2023/08/27 00:23:00;;;;;;;14.25;10.70;;;;;;;21.17;60.33;100266.42;1694710;84;21385;-55
2023/08/27 00:26:05;;;;;;;12.15;9.93;;;;;;;21.15;60.51;100257.50;1715255;83;21863;-55
2023/08/27 00:29:10;;;;;;;14.45;11.18;;;;;;;21.13;60.66;100253.25;1716352;83;22152;-55
2023/08/27 00:32:16;;;;;;;15.00;10.82;;;;;;;21.07;60.74;100254.25;1715615;83;21393;-55
2023/08/27 00:35:25;;;;;;;15.53;11.15;;;;;;;21.05;60.88;100260.06;1716537;83;21238;-55
2023/08/27 00:38:30;;;;;;;16.62;11.03;;;;;;;21.03;61.08;100255.28;1715520;83;21877;-55
2023/08/27 00:41:36;;;;;;;14.38;11.22;;;;;;;21.00;61.20;100246.58;1715565;83;21362;-55
2023/08/27 00:44:42;;;;;;;17.98;11.85;;;;;;;20.97;61.36;100252.10;1715633;83;21385;-55
2023/08/27 00:47:50;;;;;;;17.92;11.45;;;;;;;20.95;61.46;100252.85;1716177;83;21887;-55
2023/08/27 00:50:57;;;;;;;20.08;11.65;;;;;;;20.93;61.55;100255.59;1716035;83;21374;-55
2023/08/27 00:54:04;;;;;;;13.60;10.70;;;;;;;20.92;61.75;100264.48;1716035;83;21389;-55
2023/08/27 00:57:11;;;;;;;16.45;11.75;;;;;;;20.92;61.87;100258.91;1715092;83;21211;-54
2023/08/27 01:00:17;;;;;;;18.80;12.13;;;;;;;20.92;62.01;100263.09;1715875;83;21370;-55
2023/08/27 01:03:22;;;;;;;14.15;10.85;;;;;;;20.91;62.14;100260.02;1715761;83;21884;-55
2023/08/27 01:06:27;;;;;;;19.95;11.10;;;;;;;20.93;62.29;100260.59;1715571;83;21941;-55
2023/08/27 01:09:45;;;;;;;14.70;11.12;;;;;;;20.93;62.45;100260.59;1715337;83;21879;-56
2023/08/27 01:13:07;;;;;;;20.15;11.85;;;;;;;20.94;62.59;100253.95;1692574;83;21422;-56
2023/08/27 01:16:13;;;;;;;18.05;12.58;;;;;;;20.96;62.75;100256.48;1713589;83;21362;-55
2023/08/27 01:19:21;;;;;;;14.10;11.70;;;;;;;20.97;62.89;100259.06;1693040;84;21231;-55
2023/08/27 01:22:29;;;;;;;15.80;11.20;;;;;;;20.99;63.08;100251.85;1725717;83;21385;-55
2023/08/27 01:25:52;;;;;;;20.65;12.05;;;;;;;21.00;63.19;100258.56;1725720;83;21440;-54
2023/08/27 01:29:10;;;;;;;15.10;11.95;;;;;;;21.00;63.31;100264.13;1725820;83;21457;-54
2023/08/27 01:32:45;;;;;;;14.60;11.05;;;;;;;20.96;63.29;100281.04;1724903;83;21859;-53
2023/08/27 01:35:52;;;;;;;16.25;11.50;;;;;;;20.88;63.28;100268.00;1725266;83;21408;-55
2023/08/27 01:38:57;;;;;;;21.65;11.65;;;;;;;20.81;63.48;100250.05;1703612;83;21388;-55
2023/08/27 01:42:03;;;;;;;16.00;11.60;;;;;;;20.81;63.73;100250.05;1715598;83;21383;-55
2023/08/27 01:45:13;;;;;;;17.37;12.78;;;;;;;20.79;63.80;100250.30;1717655;83;21205;-56
2023/08/27 01:48:19;;;;;;;16.60;10.90;;;;;;;20.79;63.93;100235.52;1717183;83;21242;-54
2023/08/27 01:51:25;;;;;;;17.57;12.37;;;;;;;20.81;64.12;100252.83;1717520;83;21764;-56
2023/08/27 01:54:33;;;;;;;15.70;12.13;;;;;;;20.82;64.23;100236.42;1716774;83;21246;-56
2023/08/27 01:57:39;;;;;;;17.62;11.97;;;;;;;20.83;64.38;100256.76;1685585;84;21708;-55
2023/08/27 02:00:45;;;;;;;18.07;12.70;;;;;;;20.79;64.42;100241.95;1678070;84;21436;-55
2023/08/27 02:03:51;;;;;;;16.48;11.95;;;;;;;20.80;64.61;100242.80;1715698;83;21360;-55
2023/08/27 02:06:57;;;;;;;15.83;11.68;;;;;;;20.82;64.70;100254.51;1717849;83;21211;-55
2023/08/27 02:10:03;;;;;;;19.35;12.05;;;;;;;20.82;64.85;100247.55;1717962;83;21235;-55
2023/08/27 02:13:09;;;;;;;18.42;11.53;;;;;;;20.85;65.02;100240.67;1717151;82;21770;-55
2023/08/27 02:16:14;;;;;;;23.05;12.23;;;;;;;20.86;65.05;100245.98;1707104;84;21398;-56
2023/08/27 02:19:21;;;;;;;18.00;11.78;;;;;;;20.83;65.04;100242.31;1707555;83;21698;-56
2023/08/27 02:22:27;;;;;;;18.12;12.73;;;;;;;20.83;65.15;100245.09;1707862;83;21429;-56
2023/08/27 02:25:36;;;;;;;18.15;12.40;;;;;;;20.83;65.33;100235.89;1707503;83;21429;-56
2023/08/27 02:28:44;;;;;;;17.73;12.00;;;;;;;20.84;65.48;100237.03;1707832;83;21409;-55
2023/08/27 02:31:50;;;;;;;20.10;12.93;;;;;;;20.84;65.61;100253.72;1707357;83;21381;-55
2023/08/27 02:34:56;;;;;;;16.65;11.93;;;;;;;20.84;65.74;100243.98;1691198;84;21232;-55
2023/08/27 02:37:56;;;;;;;15.23;11.88;;;;;;;20.85;65.89;100238.73;1711045;83;21429;-56
2023/08/27 02:40:49;;;;;;;15.05;12.15;;;;;;;20.85;66.04;100227.61;1715124;83;21235;-56
2023/08/27 02:43:55;;;;;;;21.75;12.05;;;;;;;20.83;66.09;100231.17;1707341;84;21238;-55
2023/08/27 02:47:02;;;;;;;15.70;12.35;;;;;;;20.80;66.11;100223.33;1715231;83;21215;-56
2023/08/27 02:50:08;;;;;;;18.57;12.58;;;;;;;20.80;66.24;100221.94;1715108;83;21223;-55
2023/08/27 02:53:15;;;;;;;16.57;12.58;;;;;;;20.76;66.26;100217.40;1715001;83;21234;-55
2023/08/27 02:56:20;;;;;;;19.45;12.47;;;;;;;20.74;66.30;100218.18;1714907;83;21259;-54
2023/08/27 02:59:26;;;;;;;20.35;13.30;;;;;;;20.71;66.40;100215.03;1714961;83;21274;-54
2023/08/27 03:02:32;;;;;;;20.75;13.13;;;;;;;20.67;66.51;100210.53;1707319;84;21267;-54
2023/08/27 03:05:39;;;;;;;16.62;12.78;;;;;;;20.66;66.62;100208.00;1715000;83;21787;-55
2023/08/27 03:08:45;;;;;;;18.62;13.45;;;;;;;20.64;66.75;100207.39;1714925;83;21230;-55
2023/08/27 03:11:54;;;;;;;18.95;14.90;;;;;;;20.62;66.88;100209.56;1714758;83;21223;-55
2023/08/27 03:14:59;;;;;;;23.67;16.32;;;;;;;20.60;67.06;100203.39;1712821;83;21294;-54
2023/08/27 03:18:05;;;;;;;59.58;37.88;;;;;;;20.58;67.22;100198.64;1710592;83;21325;-55
2023/08/27 03:21:12;;;;;;;127.78;73.22;;;;;;;20.59;67.38;100206.74;1714927;83;21223;-55
2023/08/27 03:24:19;;;;;;;130.57;78.20;;;;;;;20.57;67.51;100199.18;1714760;83;21239;-55
2023/08/27 03:27:25;;;;;;;139.43;83.33;;;;;;;20.56;67.57;100198.03;1714732;83;21223;-56
2023/08/27 03:30:33;;;;;;;94.97;59.88;;;;;;;20.55;67.62;100194.96;1692934;83;21215;-54
2023/08/27 03:33:39;;;;;;;118.93;68.95;;;;;;;20.53;67.76;100192.39;1714506;83;21184;-54
2023/08/27 03:36:45;;;;;;;46.83;30.20;;;;;;;20.51;67.84;100202.95;1707255;84;21379;-55
2023/08/27 03:39:50;;;;;;;38.05;21.82;;;;;;;20.51;68.00;100202.95;1707312;83;21438;-55
2023/08/27 03:42:57;;;;;;;24.50;18.35;;;;;;;20.52;68.11;100203.77;1707206;83;21224;-55
2023/08/27 03:46:03;;;;;;;63.20;38.35;;;;;;;20.51;68.26;100206.27;1707579;83;21350;-54
2023/08/27 03:49:09;;;;;;;41.37;27.58;;;;;;;20.50;68.36;100198.45;1706930;83;21875;-55
2023/08/27 03:52:15;;;;;;;28.50;20.05;;;;;;;20.52;68.41;100200.98;1707277;83;21955;-55
2023/08/27 03:55:23;;;;;;;23.10;16.90;;;;;;;20.53;68.52;100196.56;1707312;83;21366;-55
2023/08/27 03:58:32;;;;;;;25.12;17.07;;;;;;;20.56;68.68;100199.42;1708081;83;21249;-55
2023/08/27 04:01:38;;;;;;;19.15;15.88;;;;;;;20.59;68.81;100193.37;1707123;83;21405;-55
2023/08/27 04:04:45;;;;;;;24.18;18.48;;;;;;;20.62;68.94;100188.70;1682298;85;21507;-54
2023/08/27 04:07:51;;;;;;;23.07;18.70;;;;;;;20.66;69.08;100200.48;1699469;84;21223;-54
2023/08/27 04:11:04;;;;;;;23.80;18.37;;;;;;;20.70;69.19;100196.13;1707881;83;21247;-54
2023/08/27 04:14:09;;;;;;;28.67;20.43;;;;;;;20.75;69.31;100192.61;1707168;83;21502;-55
2023/08/27 04:17:15;;;;;;;20.85;17.30;;;;;;;20.81;69.46;100197.17;1682790;84;21287;-55
2023/08/27 04:20:21;;;;;;;21.95;17.30;;;;;;;20.86;69.61;100202.00;1684967;85;21378;-54
2023/08/27 04:23:27;;;;;;;21.33;15.63;;;;;;;20.91;69.74;100204.89;1680889;85;21239;-54
2023/08/27 04:26:33;;;;;;;20.80;16.02;;;;;;;20.97;69.89;100205.32;1687103;84;21215;-54
2023/08/27 04:29:38;;;;;;;18.92;16.02;;;;;;;21.03;69.99;100193.19;1686873;85;21219;-55
2023/08/27 04:32:44;;;;;;;20.50;15.58;;;;;;;21.09;70.12;100181.91;1687760;84;21569;-54
2023/08/27 04:35:52;;;;;;;22.80;16.85;;;;;;;21.17;70.27;100188.47;1687573;84;22006;-54
2023/08/27 04:38:58;;;;;;;19.85;15.05;;;;;;;21.25;70.41;100190.03;1693954;83;21395;-53
2023/08/27 04:42:06;;;;;;;21.07;16.02;;;;;;;21.34;70.55;100192.16;1687540;84;21246;-54
2023/08/27 04:45:16;;;;;;;23.92;16.50;;;;;;;21.44;70.71;100183.97;1686572;85;21281;-54
2023/08/27 04:48:22;;;;;;;19.85;15.88;;;;;;;21.53;70.83;100177.45;1686793;85;21240;-54
2023/08/27 04:51:27;;;;;;;18.90;14.28;;;;;;;21.62;70.99;100171.20;1686752;85;21777;-54
2023/08/27 04:54:35;;;;;;;21.82;14.98;;;;;;;21.73;71.11;100166.64;1686744;85;21232;-54
2023/08/27 04:57:42;;;;;;;19.75;16.40;;;;;;;21.82;71.29;100163.20;1674599;85;21427;-54
2023/08/27 05:00:50;;;;;;;17.30;14.73;;;;;;;21.92;71.41;100149.98;1682534;85;21280;-55
2023/08/27 05:03:56;;;;;;;17.60;13.93;;;;;;;22.03;71.58;100148.49;1683983;85;21281;-55
2023/08/27 05:07:02;;;;;;;17.70;13.93;;;;;;;22.14;71.69;100152.27;1686651;85;21224;-54
2023/08/27 05:10:09;;;;;;;18.50;13.70;;;;;;;22.25;71.84;100157.46;1686424;85;21261;-54
2023/08/27 05:13:15;;;;;;;16.85;13.65;;;;;;;22.35;71.99;100151.47;1671319;86;21297;-55
2023/08/27 05:16:21;;;;;;;15.80;12.45;;;;;;;22.46;72.12;100151.04;1672445;85;21230;-55
2023/08/27 05:19:27;;;;;;;15.98;13.75;;;;;;;22.56;72.23;100156.26;1714234;83;21236;-54
2023/08/27 05:22:32;;;;;;;16.95;13.18;;;;;;;22.66;72.36;100161.95;1706748;84;21235;-54
2023/08/27 05:25:36;;;;;;;15.08;13.03;;;;;;;22.76;72.44;100165.41;1691726;83;21303;-54
2023/08/27 05:28:43;;;;;;;18.30;13.48;;;;;;;22.85;72.54;100163.88;1706937;84;21278;-54
2023/08/27 05:31:48;;;;;;;19.87;13.75;;;;;;;22.93;72.64;100157.26;1705531;83;21232;-55
2023/08/27 05:34:55;;;;;;;18.17;13.88;;;;;;;23.02;72.74;100146.48;1705104;83;21290;-55
2023/08/27 05:38:02;;;;;;;15.20;12.78;;;;;;;23.11;72.85;100149.08;1705102;84;21231;-55
2023/08/27 05:41:08;;;;;;;15.53;12.70;;;;;;;23.20;72.98;100148.88;1706415;82;21899;-55
2023/08/27 05:44:14;;;;;;;16.67;13.25;;;;;;;23.29;73.09;100156.56;1734403;82;21276;-55
2023/08/27 05:47:20;;;;;;;14.03;12.15;;;;;;;23.39;73.20;100150.23;1733722;82;21363;-55
2023/08/27 05:50:26;;;;;;;15.28;12.80;;;;;;;23.47;73.29;100149.75;1734862;82;21366;-55
2023/08/27 05:53:32;;;;;;;13.62;12.05;;;;;;;23.56;73.42;100154.59;1734083;82;21864;-55
2023/08/27 05:56:38;;;;;;;16.12;12.35;;;;;;;23.66;73.51;100156.63;1734130;82;21358;-55
2023/08/27 05:59:44;;;;;;;20.30;13.55;;;;;;;23.76;73.63;100153.92;1734720;82;21390;-55
2023/08/27 06:02:52;;;;;;;19.62;14.07;;;;;;;23.87;73.75;100163.23;1673508;85;21370;-56
2023/08/27 06:05:58;;;;;;;17.57;12.95;;;;;;;23.99;73.85;100154.14;1673505;85;21378;-55
2023/08/27 06:09:04;;;;;;;14.28;12.05;;;;;;;24.08;73.90;100164.56;1673581;85;21243;-55
2023/08/27 06:12:12;;;;;;;12.85;11.43;;;;;;;24.17;73.96;100167.13;1673446;85;21345;-55
2023/08/27 06:15:18;;;;;;;16.30;11.63;;;;;;;24.26;73.97;100171.09;1734539;82;21378;-56
2023/08/27 06:18:23;;;;;;;16.23;11.97;;;;;;;24.36;74.00;100168.92;1680915;83;21244;-56
2023/08/27 06:21:30;;;;;;;14.00;11.22;;;;;;;24.44;74.07;100166.46;1686376;85;21386;-54
2023/08/27 06:24:37;;;;;;;12.25;10.90;;;;;;;24.53;74.09;100165.40;1748922;82;21911;-56
2023/08/27 06:27:43;;;;;;;14.78;10.48;;;;;;;24.61;74.14;100169.91;1687822;83;21272;-55
2023/08/27 06:30:50;;;;;;;12.40;10.72;;;;;;;24.71;74.15;100174.74;1749706;82;21235;-55
2023/08/27 06:33:58;;;;;;;16.15;11.10;;;;;;;24.78;74.14;100178.97;1672015;84;21233;-55
2023/08/27 06:37:04;;;;;;;15.70;10.40;;;;;;;24.88;74.16;100197.77;1749562;82;21931;-56
2023/08/27 06:40:11;;;;;;;15.05;9.93;;;;;;;24.94;74.11;100187.72;1747810;81;21401;-55
2023/08/27 06:43:16;;;;;;;14.80;10.53;;;;;;;25.01;74.09;100197.27;1713944;83;21377;-55
2023/08/27 06:46:24;;;;;;;16.97;11.18;;;;;;;25.08;74.07;100193.67;1747667;82;21393;-56
2023/08/27 06:49:30;;;;;;;14.75;10.35;;;;;;;25.15;74.09;100190.03;1747497;82;21369;-55
2023/08/27 06:52:35;;;;;;;13.45;11.30;;;;;;;25.25;74.08;100196.22;1750401;81;21904;-56
2023/08/27 06:55:41;;;;;;;17.05;10.78;;;;;;;25.31;74.06;100186.16;1687982;84;21380;-56
2023/08/27 06:58:48;;;;;;;17.07;11.68;;;;;;;25.36;74.05;100177.80;1687875;85;21952;-55
2023/08/27 07:01:53;;;;;;;15.13;11.35;;;;;;;25.43;74.04;100188.75;1720274;83;21732;-56
2023/08/27 07:05:00;;;;;;;17.40;11.65;;;;;;;25.49;74.05;100193.23;1688093;85;21977;-54
2023/08/27 07:08:09;;;;;;;12.95;10.88;;;;;;;25.57;74.09;100191.28;1716002;83;21761;-55
2023/08/27 07:11:17;;;;;;;20.17;11.40;;;;;;;25.63;74.06;100192.97;1715709;83;21710;-55
2023/08/27 07:14:22;;;;;;;20.05;11.40;;;;;;;25.71;74.04;100193.82;1685299;85;21750;-56
2023/08/27 07:17:29;;;;;;;15.50;11.60;;;;;;;25.80;74.05;100197.19;1687743;85;21804;-54
2023/08/27 07:20:35;;;;;;;14.20;11.90;;;;;;;25.87;74.01;100191.30;1674444;84;21243;-54
2023/08/27 07:23:41;;;;;;;17.17;12.03;;;;;;;25.95;73.97;100178.12;1715063;83;21396;-55
2023/08/27 07:26:46;;;;;;;13.53;11.70;;;;;;;26.02;73.94;100174.52;1686888;85;21242;-55
2023/08/27 07:29:51;;;;;;;12.63;10.80;;;;;;;26.10;73.91;100167.75;1709776;84;21247;-55
2023/08/27 07:32:58;;;;;;;15.50;11.35;;;;;;;26.18;73.86;100171.95;1685490;84;21234;-55
2023/08/27 07:36:04;;;;;;;12.40;11.18;;;;;;;26.26;73.82;100168.02;1706530;82;21204;-56
2023/08/27 07:39:11;;;;;;;13.30;10.93;;;;;;;26.33;73.72;100173.34;1691137;84;21316;-55
2023/08/27 07:42:17;;;;;;;15.05;10.63;;;;;;;26.40;73.65;100176.70;1748844;82;21374;-56
2023/08/27 07:45:22;;;;;;;12.73;11.43;;;;;;;26.44;73.57;100173.59;1749094;82;21753;-55
2023/08/27 07:48:28;;;;;;;12.55;11.25;;;;;;;26.52;73.49;100170.75;1754375;81;21238;-55
2023/08/27 07:51:33;;;;;;;14.40;10.20;;;;;;;26.60;73.42;100169.62;1749321;82;21215;-55
2023/08/27 07:54:38;;;;;;;15.68;10.70;;;;;;;26.67;73.35;100167.95;1749110;82;21211;-56
2023/08/27 07:57:46;;;;;;;19.45;10.72;;;;;;;26.75;73.29;100173.80;1748439;82;21325;-56
2023/08/27 08:00:52;;;;;;;12.60;9.88;;;;;;;26.85;73.23;100172.36;1741219;82;21605;-55
2023/08/27 08:03:58;;;;;;;15.32;10.03;;;;;;;26.92;73.11;100174.31;1715523;83;21227;-56
2023/08/27 08:07:04;;;;;;;13.72;10.13;;;;;;;27.02;73.05;100167.22;1686332;85;21231;-56
2023/08/27 08:10:09;;;;;;;12.13;9.13;;;;;;;27.11;72.98;100167.47;1747323;80;21290;-56
2023/08/27 08:13:17;;;;;;;15.60;8.65;;;;;;;27.20;72.84;100163.75;1716416;82;21243;-55
2023/08/27 08:16:23;;;;;;;12.15;10.40;;;;;;;27.29;72.71;100159.22;1748641;82;21413;-56
2023/08/27 08:19:29;;;;;;;11.12;8.53;;;;;;;27.38;72.53;100163.68;1687620;83;21289;-56
2023/08/27 08:22:37;;;;;;;13.83;8.95;;;;;;;27.44;72.32;100164.77;1734070;82;21640;-55
2023/08/27 08:25:44;;;;;;;11.97;8.80;;;;;;;27.51;72.14;100161.05;1685430;84;21230;-57
2023/08/27 08:28:48;;;;;;;11.55;8.10;;;;;;;27.60;72.02;100161.27;1673348;85;21228;-56
2023/08/27 08:31:55;;;;;;;10.80;8.65;;;;;;;27.71;71.87;100158.09;1674405;85;21240;-56
2023/08/27 08:35:01;;;;;;;11.10;8.60;;;;;;;27.80;71.62;100163.91;1667199;85;21281;-55
2023/08/27 08:38:08;;;;;;;14.93;8.23;;;;;;;27.91;71.47;100149.24;1616475;86;21423;-54
2023/08/27 08:41:14;;;;;;;8.60;7.70;;;;;;;28.02;71.33;100153.05;1643067;87;21504;-54
2023/08/27 08:44:36;;;;;;;12.03;8.13;;;;;;;28.12;71.08;100151.56;1651299;87;21299;-54
2023/08/27 08:47:43;;;;;;;12.90;7.00;;;;;;;28.23;70.80;100146.66;1643422;87;21284;-55
2023/08/27 08:50:49;;;;;;;9.50;7.20;;;;;;;28.34;70.52;100149.08;1673387;85;21224;-54
2023/08/27 08:53:57;;;;;;;8.20;7.03;;;;;;;28.44;70.19;100148.13;1648614;85;21216;-54
2023/08/27 08:57:04;;;;;;;13.18;7.15;;;;;;;28.53;69.92;100154.80;1645325;87;21283;-55
2023/08/27 09:00:11;;;;;;;10.50;7.10;;;;;;;28.62;69.57;100151.03;1640706;87;21237;-55
2023/08/27 09:03:17;;;;;;;8.93;6.55;;;;;;;28.73;69.29;100148.95;1697777;84;21224;-56
2023/08/27 09:06:26;;;;;;;7.65;6.45;;;;;;;28.81;68.97;100150.52;1706426;84;21224;-56
2023/08/27 09:09:32;;;;;;;8.35;6.65;;;;;;;28.93;68.64;100148.68;1644442;86;21247;-55
2023/08/27 09:12:39;;;;;;;8.83;6.35;;;;;;;29.01;68.29;100150.83;1641072;87;21253;-56
2023/08/27 09:15:45;;;;;;;8.10;6.50;;;;;;;29.09;67.96;100155.27;1643213;86;21243;-53
2023/08/27 09:18:51;;;;;;;8.55;6.17;;;;;;;29.18;67.62;100151.18;1640797;87;21329;-55
2023/08/27 09:21:57;;;;;;;10.00;7.10;;;;;;;29.27;67.26;100146.56;1660093;86;21251;-55
2023/08/27 09:25:03;;;;;;;11.78;6.05;;;;;;;29.32;66.91;100147.87;1632301;86;21276;-55
2023/08/27 09:28:09;;;;;;;9.85;6.28;;;;;;;29.39;65.89;100131.98;1670315;84;21280;-56
2023/08/27 09:31:18;;;;;;;10.45;7.45;;;;;;;29.39;65.89;100131.98;1642582;86;21279;-56
2023/08/27 09:34:23;;;;;;;8.90;6.40;;;;;;;29.46;65.75;100140.34;1681539;85;21378;-56
2023/08/27 09:37:29;;;;;;;10.72;6.00;;;;;;;29.51;65.36;100136.01;1653938;85;21359;-55
2023/08/27 09:40:36;;;;;;;10.32;6.05;;;;;;;29.54;65.06;100146.71;1636914;86;21200;-57
2023/08/27 09:43:41;;;;;;;8.80;5.85;;;;;;;29.61;64.68;100130.77;1712036;83;21239;-56
2023/08/27 09:46:47;;;;;;;9.48;6.25;;;;;;;29.67;64.36;100136.06;1710578;84;21208;-56
2023/08/27 09:49:54;;;;;;;8.95;6.45;;;;;;;29.75;64.05;100132.55;1642766;86;21757;-56
2023/08/27 09:53:00;;;;;;;8.18;4.95;;;;;;;29.82;63.72;100129.33;1712162;83;21328;-56
2023/08/27 09:56:07;;;;;;;10.48;5.12;;;;;;;29.89;63.36;100126.97;1711541;84;21259;-54
2023/08/27 09:59:14;;;;;;;9.50;4.83;;;;;;;29.96;63.04;100132.47;1711885;84;21239;-55
2023/08/27 10:02:23;;;;;;;10.23;5.55;;;;;;;30.01;62.57;100124.48;1687674;85;21268;-54
2023/08/27 10:05:39;;;;;;;7.75;5.42;;;;;;;30.06;62.25;100133.70;1635767;86;21280;-56
2023/08/27 10:08:55;;;;;;;9.23;5.28;;;;;;;30.13;61.98;100129.89;1692436;84;21225;-57
2023/08/27 10:12:02;;;;;;;8.13;5.20;;;;;;;30.22;61.61;100128.05;1633290;86;21264;-55
2023/08/27 10:15:09;;;;;;;11.65;5.45;;;;;;;30.30;61.25;100135.80;1701280;84;21255;-56
2023/08/27 10:18:20;;;;;;;7.80;5.28;;;;;;;30.35;60.84;100127.23;1640702;86;21316;-56
2023/08/27 10:21:26;;;;;;;6.25;5.20;;;;;;;30.38;60.46;100130.84;1711188;84;21212;-55
2023/08/27 10:24:33;;;;;;;7.03;5.60;;;;;;;30.44;60.16;100137.25;1642022;84;21808;-55
2023/08/27 10:27:41;;;;;;;6.05;4.87;;;;;;;30.51;59.82;100137.66;1699640;84;21426;-55
2023/08/27 10:30:47;;;;;;;8.25;5.20;;;;;;;30.56;59.39;100134.17;1699280;84;21383;-56
2023/08/27 10:33:54;;;;;;;7.60;5.17;;;;;;;30.60;58.95;100126.73;1650227;86;21389;-56
2023/08/27 10:37:00;;;;;;;9.78;5.67;;;;;;;30.62;58.58;100130.65;1644635;86;21267;-57
2023/08/27 10:40:08;;;;;;;7.70;5.15;;;;;;;30.65;58.23;100122.98;1638679;86;21384;-56
2023/08/27 10:43:26;;;;;;;9.90;5.58;;;;;;;30.71;57.94;100113.80;1656408;86;21875;-56
2023/08/27 10:46:33;;;;;;;6.30;5.55;;;;;;;30.81;57.65;100110.80;1646189;86;21244;-56
2023/08/27 10:49:50;;;;;;;14.25;6.55;;;;;;;30.89;57.32;100100.98;1653401;86;21811;-55
2023/08/27 10:52:58;;;;;;;12.50;5.90;;;;;;;30.99;57.09;100110.66;1677118;85;21300;-56
2023/08/27 10:56:05;;;;;;;11.53;6.45;;;;;;;31.06;56.71;100104.58;1649388;86;21739;-57
2023/08/27 10:59:35;;;;;;;10.70;6.28;;;;;;;31.15;56.52;100103.52;1646055;85;21303;-55
2023/08/27 11:03:01;;;;;;;11.28;6.72;;;;;;;31.24;56.29;100097.95;1709955;83;21204;-54
2023/08/27 11:06:21;;;;;;;8.18;6.25;;;;;;;31.34;55.95;100097.72;1704331;83;21219;-56
2023/08/27 11:09:31;;;;;;;10.05;7.20;;;;;;;31.44;55.67;100098.91;1673933;83;21789;-55
2023/08/27 11:12:43;;;;;;;8.55;6.37;;;;;;;31.51;55.36;100103.52;1704637;83;21261;-56
2023/08/27 11:15:49;;;;;;;10.05;7.62;;;;;;;31.40;54.86;100095.02;1705028;83;21219;-56
2023/08/27 11:18:58;;;;;;;8.48;6.83;;;;;;;31.34;54.78;100096.30;1704199;83;21263;-55
2023/08/27 11:22:13;;;;;;;10.75;6.20;;;;;;;31.49;54.78;100092.52;1705027;83;21391;-55
2023/08/27 11:25:19;;;;;;;10.00;6.78;;;;;;;31.66;54.60;100084.75;1674647;83;21779;-55
2023/08/27 11:28:27;;;;;;;9.43;6.17;;;;;;;31.78;54.33;100077.91;1717834;83;21270;-56
2023/08/27 11:31:33;;;;;;;9.78;5.90;;;;;;;31.91;54.15;100079.88;1719652;83;21230;-55
2023/08/27 11:34:43;;;;;;;8.95;6.37;;;;;;;32.01;53.87;100075.36;1719597;83;21247;-56
2023/08/27 11:37:49;;;;;;;10.28;6.00;;;;;;;32.10;53.57;100071.98;1724866;83;21373;-56
2023/08/27 11:40:57;;;;;;;8.33;6.22;;;;;;;32.13;53.20;100071.33;1719685;83;21365;-55
2023/08/27 11:44:04;;;;;;;12.70;6.00;;;;;;;32.10;52.86;100069.16;1719342;83;21926;-56
2023/08/27 11:47:15;;;;;;;11.10;6.22;;;;;;;32.03;52.50;100068.80;1719887;83;21890;-54
2023/08/27 11:50:22;;;;;;;8.10;5.80;;;;;;;32.04;52.40;100057.71;1725088;81;21803;-54
2023/08/27 11:53:28;;;;;;;11.78;5.60;;;;;;;32.12;52.33;100060.33;1725548;83;21755;-55
2023/08/27 11:56:33;;;;;;;7.30;5.05;;;;;;;32.17;52.07;100058.77;1700505;83;21440;-56
2023/08/27 11:59:40;;;;;;;6.03;5.35;;;;;;;32.19;51.87;100057.87;1718671;83;21361;-57
2023/08/27 12:02:47;;;;;;;7.90;5.67;;;;;;;32.22;51.64;100067.98;1719951;83;21392;-55
2023/08/27 12:05:55;;;;;;;7.33;4.87;;;;;;;32.22;51.37;100060.89;1720188;83;21887;-55
2023/08/27 12:09:02;;;;;;;10.32;5.08;;;;;;;32.22;51.14;100059.48;1719222;83;21764;-55
2023/08/27 12:12:14;;;;;;;9.78;5.12;;;;;;;32.21;50.90;100053.54;1719477;83;21883;-55
2023/08/27 12:15:19;;;;;;;8.23;4.50;;;;;;;32.23;50.74;100054.06;1719656;83;21370;-55
2023/08/27 12:18:25;;;;;;;8.55;4.90;;;;;;;32.16;50.29;100049.42;1719977;83;21918;-55
2023/08/27 12:21:33;;;;;;;11.78;5.80;;;;;;;32.10;50.14;100040.83;1701487;83;21381;-56
2023/08/27 12:24:52;;;;;;;6.83;4.87;;;;;;;32.07;49.94;100043.47;1717332;83;21361;-55
2023/08/27 12:27:57;;;;;;;8.98;5.50;;;;;;;31.99;49.72;100040.85;1719951;80;21879;-55
2023/08/27 12:31:05;;;;;;;7.60;5.08;;;;;;;31.89;49.53;100032.63;1745154;80;21201;-56
2023/08/27 12:34:12;;;;;;;10.75;5.60;;;;;;;31.82;49.32;100037.33;1724778;82;21863;-55
2023/08/27 12:37:18;;;;;;;7.85;4.97;;;;;;;31.80;49.24;100035.96;1719219;83;21855;-55
2023/08/27 12:40:23;;;;;;;7.83;4.78;;;;;;;31.77;49.06;100030.37;1725155;83;21342;-56
2023/08/27 12:43:30;;;;;;;8.78;5.40;;;;;;;31.74;48.95;100025.37;1719741;82;21420;-55
2023/08/27 12:46:36;;;;;;;7.75;4.62;;;;;;;31.75;48.88;100030.43;1725512;83;21349;-55
2023/08/27 12:49:45;;;;;;;10.00;5.28;;;;;;;31.77;48.76;100040.86;1719556;83;21401;-55
2023/08/27 12:52:52;;;;;;;6.05;4.67;;;;;;;31.76;48.59;100027.88;1718969;82;21361;-55
2023/08/27 12:55:58;;;;;;;11.48;4.28;;;;;;;31.74;48.49;100024.52;1724631;83;21214;-55
2023/08/27 12:59:05;;;;;;;7.67;4.65;;;;;;;31.76;48.37;100026.46;1719306;82;21231;-55
2023/08/27 13:02:12;;;;;;;7.92;4.50;;;;;;;31.69;48.10;100026.91;1719377;83;21847;-55
2023/08/27 13:05:20;;;;;;;10.08;4.65;;;;;;;31.66;47.98;100030.39;1718894;83;21354;-55
2023/08/27 13:08:25;;;;;;;7.33;4.62;;;;;;;31.62;47.80;100032.19;1725168;83;21802;-54
2023/08/27 13:11:31;;;;;;;5.00;3.98;;;;;;;31.59;47.68;100027.74;1719803;83;21254;-55
2023/08/27 13:14:37;;;;;;;6.90;4.22;;;;;;;31.56;47.53;100026.41;1720159;83;21365;-55
2023/08/27 13:17:42;;;;;;;7.78;4.37;;;;;;;31.55;47.43;100013.99;1720311;82;21377;-56
2023/08/27 13:20:49;;;;;;;9.10;4.55;;;;;;;31.58;47.39;100024.09;1725521;83;21424;-55
2023/08/27 13:23:55;;;;;;;13.18;4.45;;;;;;;31.58;47.33;100022.68;1712489;82;21444;-54
2023/08/27 13:27:01;;;;;;;9.35;4.55;;;;;;;31.59;47.17;100022.92;1719040;83;21772;-56
2023/08/27 13:30:10;;;;;;;6.17;4.45;;;;;;;31.60;47.06;100022.36;1719780;83;21389;-55
2023/08/27 13:33:16;;;;;;;9.88;4.78;;;;;;;31.60;46.97;100030.84;1719704;82;21404;-56
2023/08/27 13:36:24;;;;;;;7.00;4.03;;;;;;;31.59;46.87;100030.00;1724931;82;21332;-56
2023/08/27 13:39:29;;;;;;;6.97;4.28;;;;;;;31.57;46.75;100031.50;1703323;83;21326;-54
2023/08/27 13:42:35;;;;;;;7.35;4.50;;;;;;;31.56;46.64;100022.73;1720561;83;21215;-56
2023/08/27 13:45:41;;;;;;;8.35;4.70;;;;;;;31.54;46.53;100023.05;1720155;83;21735;-57
2023/08/27 13:48:48;;;;;;;6.10;4.08;;;;;;;31.54;46.41;100021.64;1727055;82;21278;-56
2023/08/27 13:51:56;;;;;;;9.68;4.72;;;;;;;31.55;46.33;100028.14;1693082;83;21231;-54
2023/08/27 13:55:03;;;;;;;6.03;4.10;;;;;;;31.55;46.21;100030.41;1719500;83;21211;-54
2023/08/27 13:58:08;;;;;;;7.87;4.55;;;;;;;31.53;46.07;100028.47;1720219;83;21385;-56
2023/08/27 14:01:16;;;;;;;8.80;4.70;;;;;;;31.51;45.97;100029.93;1715831;83;21278;-54
2023/08/27 14:04:22;;;;;;;9.48;4.62;;;;;;;31.50;45.92;100032.52;1719882;83;21216;-55
2023/08/27 14:07:28;;;;;;;6.90;4.35;;;;;;;31.49;45.84;100027.42;1720810;83;21298;-55
2023/08/27 14:10:34;;;;;;;7.55;3.95;;;;;;;31.48;45.77;100029.16;1719987;83;21357;-56
2023/08/27 14:13:44;;;;;;;8.33;4.33;;;;;;;31.46;45.67;100037.98;1719490;83;21259;-56
2023/08/27 14:16:48;;;;;;;8.58;4.25;;;;;;;31.43;45.56;100034.98;1719980;83;21219;-56